sensor_id;sensor_type;location;lat;lon;timestamp;pressure;altitude;pressure_sealevel;temperature;humidity
26719;BME280;14326;50.794;6.060;2023-04-06T00:01:06;99863.06;;;1.86;91.38
26719;BME280;14326;50.794;6.060;2023-04-06T00:03:43;99860.56;;;1.89;91.38
26719;BME280;14326;50.794;6.060;2023-04-06T00:06:11;99855.81;;;1.80;91.72
26719;BME280;14326;50.794;6.060;2023-04-06T00:08:38;99858.50;;;1.82;91.95
26719;BME280;14326;50.794;6.060;2023-04-06T00:11:05;99860.34;;;1.84;91.77
26719;BME280;14326;50.794;6.060;2023-04-06T00:13:32;99858.72;;;1.86;91.71
26719;BME280;14326;50.794;6.060;2023-04-06T00:15:59;99858.84;;;1.89;91.60
26719;BME280;14326;50.794;6.060;2023-04-06T00:18:26;99850.31;;;1.93;91.42
26719;BME280;14326;50.794;6.060;2023-04-06T00:20:52;99849.41;;;1.93;91.24
26719;BME280;14326;50.794;6.060;2023-04-06T00:23:21;99848.16;;;1.85;90.99
26719;BME280;14326;50.794;6.060;2023-04-06T00:25:47;99843.50;;;1.79;91.13
26719;BME280;14326;50.794;6.060;2023-04-06T00:28:16;99846.78;;;1.93;90.74
26719;BME280;14326;50.794;6.060;2023-04-06T00:30:43;99848.50;;;1.92;90.90
26719;BME280;14326;50.794;6.060;2023-04-06T00:33:11;99841.56;;;1.93;90.85
26719;BME280;14326;50.794;6.060;2023-04-06T00:35:38;99841.66;;;1.77;91.15
26719;BME280;14326;50.794;6.060;2023-04-06T00:38:05;99847.28;;;1.67;90.93
26719;BME280;14326;50.794;6.060;2023-04-06T00:40:33;99838.47;;;1.64;90.34
26719;BME280;14326;50.794;6.060;2023-04-06T00:43:00;99834.69;;;1.59;90.23
26719;BME280;14326;50.794;6.060;2023-04-06T00:45:28;99830.22;;;1.57;90.13
26719;BME280;14326;50.794;6.060;2023-04-06T00:47:54;99828.13;;;1.50;90.84
26719;BME280;14326;50.794;6.060;2023-04-06T00:50:37;99824.69;;;1.51;92.26
26719;BME280;14326;50.794;6.060;2023-04-06T00:53:18;99824.81;;;1.54;91.82
26719;BME280;14326;50.794;6.060;2023-04-06T00:55:51;99817.50;;;1.64;92.00
26719;BME280;14326;50.794;6.060;2023-04-06T00:58:17;99826.22;;;1.65;91.83
26719;BME280;14326;50.794;6.060;2023-04-06T01:01:00;99816.13;;;1.55;91.24
26719;BME280;14326;50.794;6.060;2023-04-06T01:04:10;99811.81;;;1.38;92.15
26719;BME280;14326;50.794;6.060;2023-04-06T01:06:47;99805.53;;;1.34;92.17
26719;BME280;14326;50.794;6.060;2023-04-06T01:09:52;99806.06;;;1.27;92.19
26719;BME280;14326;50.794;6.060;2023-04-06T01:12:21;99804.84;;;1.38;92.98
26719;BME280;14326;50.794;6.060;2023-04-06T01:14:47;99805.28;;;1.47;92.61
26719;BME280;14326;50.794;6.060;2023-04-06T01:17:47;99804.91;;;1.57;92.14
26719;BME280;14326;50.794;6.060;2023-04-06T01:20:23;99800.28;;;1.52;91.60
26719;BME280;14326;50.794;6.060;2023-04-06T01:23:23;99799.59;;;1.56;91.47
26719;BME280;14326;50.794;6.060;2023-04-06T01:26:05;99799.59;;;1.38;91.50
26719;BME280;14326;50.794;6.060;2023-04-06T01:28:43;99798.31;;;1.30;91.75
26719;BME280;14326;50.794;6.060;2023-04-06T01:31:10;99793.03;;;1.46;91.66
26719;BME280;14326;50.794;6.060;2023-04-06T01:33:37;99793.25;;;1.51;91.57
26719;BME280;14326;50.794;6.060;2023-04-06T01:36:09;99791.13;;;1.44;91.49
26719;BME280;14326;50.794;6.060;2023-04-06T01:38:49;99797.06;;;1.40;91.83
26719;BME280;14326;50.794;6.060;2023-04-06T01:41:16;99787.50;;;1.40;92.44
26719;BME280;14326;50.794;6.060;2023-04-06T01:43:44;99784.72;;;1.37;92.11
26719;BME280;14326;50.794;6.060;2023-04-06T01:46:28;99784.28;;;1.28;92.63
26719;BME280;14326;50.794;6.060;2023-04-06T01:49:13;99774.84;;;1.14;92.99
26719;BME280;14326;50.794;6.060;2023-04-06T01:51:49;99785.03;;;1.08;93.22
26719;BME280;14326;50.794;6.060;2023-04-06T01:54:38;99776.94;;;1.03;93.78
26719;BME280;14326;50.794;6.060;2023-04-06T01:57:35;99770.28;;;1.10;93.45
26719;BME280;14326;50.794;6.060;2023-04-06T02:00:37;99768.78;;;1.15;93.35
26719;BME280;14326;50.794;6.060;2023-04-06T02:03:26;99776.34;;;1.09;92.71
26719;BME280;14326;50.794;6.060;2023-04-06T02:06:29;99768.91;;;1.00;93.93
26719;BME280;14326;50.794;6.060;2023-04-06T02:09:01;99765.28;;;0.97;93.47
26719;BME280;14326;50.794;6.060;2023-04-06T02:11:54;99766.78;;;0.92;93.46
26719;BME280;14326;50.794;6.060;2023-04-06T02:14:27;99763.69;;;0.82;94.16
26719;BME280;14326;50.794;6.060;2023-04-06T02:17:05;99767.06;;;0.80;93.84
26719;BME280;14326;50.794;6.060;2023-04-06T02:20:08;99771.53;;;0.82;94.03
26719;BME280;14326;50.794;6.060;2023-04-06T02:23:00;99767.66;;;0.74;94.48
26719;BME280;14326;50.794;6.060;2023-04-06T02:25:52;99767.66;;;0.74;94.02
26719;BME280;14326;50.794;6.060;2023-04-06T02:28:26;99763.03;;;0.87;94.27
26719;BME280;14326;50.794;6.060;2023-04-06T02:31:16;99753.69;;;0.92;93.76
26719;BME280;14326;50.794;6.060;2023-04-06T02:34:05;99752.03;;;0.94;93.77
26719;BME280;14326;50.794;6.060;2023-04-06T02:36:55;99747.16;;;1.01;93.58
26719;BME280;14326;50.794;6.060;2023-04-06T02:40:00;99747.03;;;0.98;93.83
26719;BME280;14326;50.794;6.060;2023-04-06T02:42:31;99744.50;;;1.00;93.35
26719;BME280;14326;50.794;6.060;2023-04-06T02:44:59;99739.56;;;1.06;92.74
26719;BME280;14326;50.794;6.060;2023-04-06T02:47:37;99740.66;;;1.11;92.29
26719;BME280;14326;50.794;6.060;2023-04-06T02:50:13;99733.91;;;1.16;92.39
26719;BME280;14326;50.794;6.060;2023-04-06T02:52:47;99730.19;;;1.11;91.87
26719;BME280;14326;50.794;6.060;2023-04-06T02:55:31;99731.31;;;0.80;92.11
26719;BME280;14326;50.794;6.060;2023-04-06T02:58:27;99726.50;;;0.72;93.17
26719;BME280;14326;50.794;6.060;2023-04-06T03:01:10;99732.50;;;0.69;93.87
26719;BME280;14326;50.794;6.060;2023-04-06T03:04:05;99728.47;;;0.58;94.38
26719;BME280;14326;50.794;6.060;2023-04-06T03:06:54;99731.09;;;0.58;94.46
26719;BME280;14326;50.794;6.060;2023-04-06T03:09:43;99728.50;;;0.60;94.94
26719;BME280;14326;50.794;6.060;2023-04-06T03:12:30;99731.44;;;0.66;95.34
26719;BME280;14326;50.794;6.060;2023-04-06T03:15:13;99730.03;;;0.72;94.97
26719;BME280;14326;50.794;6.060;2023-04-06T03:17:57;99725.31;;;0.65;95.38
26719;BME280;14326;50.794;6.060;2023-04-06T03:20:25;99720.53;;;0.57;95.45
26719;BME280;14326;50.794;6.060;2023-04-06T03:22:55;99724.13;;;0.59;95.48
26719;BME280;14326;50.794;6.060;2023-04-06T03:25:59;99726.97;;;0.63;95.33
26719;BME280;14326;50.794;6.060;2023-04-06T03:28:40;99730.53;;;0.65;95.18
26719;BME280;14326;50.794;6.060;2023-04-06T03:31:28;99720.38;;;0.71;95.49
26719;BME280;14326;50.794;6.060;2023-04-06T03:34:02;99715.59;;;0.80;96.04
26719;BME280;14326;50.794;6.060;2023-04-06T03:36:46;99722.09;;;0.89;96.10
26719;BME280;14326;50.794;6.060;2023-04-06T03:39:17;99717.16;;;0.95;96.32
26719;BME280;14326;50.794;6.060;2023-04-06T03:41:49;99719.94;;;0.98;96.24
26719;BME280;14326;50.794;6.060;2023-04-06T03:50:04;99712.09;;;0.98;96.20
26719;BME280;14326;50.794;6.060;2023-04-06T03:52:45;99709.97;;;1.08;96.27
26719;BME280;14326;50.794;6.060;2023-04-06T03:58:52;99704.22;;;1.15;96.95
26719;BME280;14326;50.794;6.060;2023-04-06T04:01:32;99708.84;;;1.21;97.05
26719;BME280;14326;50.794;6.060;2023-04-06T04:07:13;99711.94;;;1.32;97.70
26719;BME280;14326;50.794;6.060;2023-04-06T04:10:04;99708.50;;;1.33;97.10
26719;BME280;14326;50.794;6.060;2023-04-06T04:12:35;99706.91;;;1.36;97.48
26719;BME280;14326;50.794;6.060;2023-04-06T04:15:08;99710.41;;;1.35;97.34
26719;BME280;14326;50.794;6.060;2023-04-06T04:17:38;99707.78;;;1.35;97.42
26719;BME280;14326;50.794;6.060;2023-04-06T04:20:06;99712.13;;;1.35;97.52
26719;BME280;14326;50.794;6.060;2023-04-06T04:22:40;99709.50;;;1.35;98.06
26719;BME280;14326;50.794;6.060;2023-04-06T04:25:18;99718.19;;;1.34;97.84
26719;BME280;14326;50.794;6.060;2023-04-06T04:27:47;99721.69;;;1.34;97.81
26719;BME280;14326;50.794;6.060;2023-04-06T04:30:14;99718.25;;;1.35;97.53
26719;BME280;14326;50.794;6.060;2023-04-06T04:32:41;99713.31;;;1.41;97.75
26719;BME280;14326;50.794;6.060;2023-04-06T04:35:36;99714.31;;;1.45;97.53
26719;BME280;14326;50.794;6.060;2023-04-06T04:38:27;99714.00;;;1.56;98.03
26719;BME280;14326;50.794;6.060;2023-04-06T04:41:02;99715.78;;;1.57;97.33
26719;BME280;14326;50.794;6.060;2023-04-06T04:43:38;99713.38;;;1.62;97.50
26719;BME280;14326;50.794;6.060;2023-04-06T04:46:05;99716.97;;;1.64;97.12
26719;BME280;14326;50.794;6.060;2023-04-06T04:48:43;99713.38;;;1.62;97.57
26719;BME280;14326;50.794;6.060;2023-04-06T04:51:30;99708.13;;;1.62;97.93
26719;BME280;14326;50.794;6.060;2023-04-06T04:54:00;99707.22;;;1.61;97.79
26719;BME280;14326;50.794;6.060;2023-04-06T04:56:34;99709.16;;;1.65;97.84
26719;BME280;14326;50.794;6.060;2023-04-06T04:59:05;99709.44;;;1.72;98.08
26719;BME280;14326;50.794;6.060;2023-04-06T05:01:35;99704.19;;;1.72;97.43
26719;BME280;14326;50.794;6.060;2023-04-06T05:04:10;99712.13;;;1.73;97.64
26719;BME280;14326;50.794;6.060;2023-04-06T05:06:44;99711.50;;;1.79;97.77
26719;BME280;14326;50.794;6.060;2023-04-06T05:09:13;99712.34;;;1.78;97.55
26719;BME280;14326;50.794;6.060;2023-04-06T05:14:43;99707.03;;;1.76;98.00
26719;BME280;14326;50.794;6.060;2023-04-06T05:17:55;99700.19;;;1.80;98.21
26719;BME280;14326;50.794;6.060;2023-04-06T05:20:24;99705.00;;;1.90;98.26
26719;BME280;14326;50.794;6.060;2023-04-06T05:23:07;99705.16;;;1.93;97.64
26719;BME280;14326;50.794;6.060;2023-04-06T05:26:04;99696.69;;;1.98;97.32
26719;BME280;14326;50.794;6.060;2023-04-06T05:28:32;99691.44;;;1.98;97.40
26719;BME280;14326;50.794;6.060;2023-04-06T05:31:12;99698.47;;;1.99;96.62
26719;BME280;14326;50.794;6.060;2023-04-06T05:33:49;99699.75;;;2.09;96.88
26719;BME280;14326;50.794;6.060;2023-04-06T05:36:25;99693.06;;;2.16;96.75
26719;BME280;14326;50.794;6.060;2023-04-06T05:39:09;99689.72;;;2.20;97.00
26719;BME280;14326;50.794;6.060;2023-04-06T05:44:47;99682.25;;;2.29;97.39
26719;BME280;14326;50.794;6.060;2023-04-06T05:47:13;99684.94;;;2.30;97.31
26719;BME280;14326;50.794;6.060;2023-04-06T05:49:43;99686.06;;;2.35;97.44
26719;BME280;14326;50.794;6.060;2023-04-06T05:52:10;99686.41;;;2.44;96.32
26719;BME280;14326;50.794;6.060;2023-04-06T05:54:37;99685.03;;;2.53;95.90
26719;BME280;14326;50.794;6.060;2023-04-06T05:57:14;99686.94;;;2.57;95.29
26719;BME280;14326;50.794;6.060;2023-04-06T05:59:49;99685.56;;;2.66;95.74
26719;BME280;14326;50.794;6.060;2023-04-06T06:02:29;99685.91;;;2.74;95.51
26719;BME280;14326;50.794;6.060;2023-04-06T06:05:13;99689.59;;;2.79;95.12
26719;BME280;14326;50.794;6.060;2023-04-06T06:08:05;99683.94;;;2.91;95.59
26719;BME280;14326;50.794;6.060;2023-04-06T06:10:38;99689.59;;;3.00;95.38
26719;BME280;14326;50.794;6.060;2023-04-06T06:13:05;99676.97;;;3.13;94.06
26719;BME280;14326;50.794;6.060;2023-04-06T06:15:50;99672.66;;;3.38;92.21
26719;BME280;14326;50.794;6.060;2023-04-06T06:18:18;99672.69;;;3.61;89.75
26719;BME280;14326;50.794;6.060;2023-04-06T06:20:50;99672.16;;;3.94;85.03
26719;BME280;14326;50.794;6.060;2023-04-06T06:23:20;99660.03;;;4.23;83.62
26719;BME280;14326;50.794;6.060;2023-04-06T06:25:50;99666.91;;;4.70;77.76
26719;BME280;14326;50.794;6.060;2023-04-06T06:28:19;99675.00;;;5.03;75.75
26719;BME280;14326;50.794;6.060;2023-04-06T06:33:55;99663.41;;;5.54;74.99
26719;BME280;14326;50.794;6.060;2023-04-06T06:36:28;99659.59;;;5.74;73.00
26719;BME280;14326;50.794;6.060;2023-04-06T06:39:00;99659.97;;;5.87;73.25
26719;BME280;14326;50.794;6.060;2023-04-06T06:41:28;99663.19;;;6.06;72.93
26719;BME280;14326;50.794;6.060;2023-04-06T06:43:55;99661.81;;;6.21;71.63
26719;BME280;14326;50.794;6.060;2023-04-06T06:46:22;99662.41;;;6.42;71.73
26719;BME280;14326;50.794;6.060;2023-04-06T06:48:48;99661.03;;;6.57;69.33
26719;BME280;14326;50.794;6.060;2023-04-06T06:51:16;99666.94;;;6.82;66.27
26719;BME280;14326;50.794;6.060;2023-04-06T06:53:53;99658.38;;;6.92;66.67
26719;BME280;14326;50.794;6.060;2023-04-06T06:56:22;99663.84;;;6.99;65.72
26719;BME280;14326;50.794;6.060;2023-04-06T06:58:49;99657.06;;;7.11;64.38
26719;BME280;14326;50.794;6.060;2023-04-06T07:01:15;99655.47;;;7.17;64.89
26719;BME280;14326;50.794;6.060;2023-04-06T07:03:42;99658.38;;;7.29;64.35
26719;BME280;14326;50.794;6.060;2023-04-06T07:06:09;99657.00;;;7.47;63.07
26719;BME280;14326;50.794;6.060;2023-04-06T07:08:37;99653.69;;;7.57;63.52
26719;BME280;14326;50.794;6.060;2023-04-06T07:11:04;99653.06;;;7.68;62.05
26719;BME280;14326;50.794;6.060;2023-04-06T07:13:30;99649.75;;;7.80;62.56
26719;BME280;14326;50.794;6.060;2023-04-06T07:15:57;99650.75;;;7.85;63.67
26719;BME280;14326;50.794;6.060;2023-04-06T07:18:25;99644.81;;;7.97;62.67
26719;BME280;14326;50.794;6.060;2023-04-06T07:20:52;99640.69;;;8.11;60.86
26719;BME280;14326;50.794;6.060;2023-04-06T07:23:18;99647.09;;;8.23;60.02
26719;BME280;14326;50.794;6.060;2023-04-06T07:25:46;99647.19;;;8.28;60.35
26719;BME280;14326;50.794;6.060;2023-04-06T07:28:16;99649.09;;;8.34;61.31
26719;BME280;14326;50.794;6.060;2023-04-06T07:30:42;99648.31;;;8.39;59.91
26719;BME280;14326;50.794;6.060;2023-04-06T07:33:34;99655.47;;;8.45;58.97
26719;BME280;14326;50.794;6.060;2023-04-06T07:36:07;99650.25;;;8.48;59.56
26719;BME280;14326;50.794;6.060;2023-04-06T07:39:05;99653.84;;;8.51;59.87
26719;BME280;14326;50.794;6.060;2023-04-06T07:41:50;99650.41;;;8.57;59.39
26719;BME280;14326;50.794;6.060;2023-04-06T07:44:16;99648.78;;;8.65;57.24
26719;BME280;14326;50.794;6.060;2023-04-06T07:49:43;99643.63;;;8.74;59.87
26719;BME280;14326;50.794;6.060;2023-04-06T07:52:20;99649.91;;;8.81;57.27
26719;BME280;14326;50.794;6.060;2023-04-06T07:57:47;99645.56;;;8.86;59.09
26719;BME280;14326;50.794;6.060;2023-04-06T08:00:16;99638.59;;;8.89;58.52
26719;BME280;14326;50.794;6.060;2023-04-06T08:02:51;99645.75;;;8.96;57.70
26719;BME280;14326;50.794;6.060;2023-04-06T08:05:34;99638.84;;;9.08;56.42
26719;BME280;14326;50.794;6.060;2023-04-06T08:08:12;99636.28;;;9.14;57.68
26719;BME280;14326;50.794;6.060;2023-04-06T08:10:49;99639.94;;;9.19;57.12
26719;BME280;14326;50.794;6.060;2023-04-06T08:13:17;99635.59;;;9.27;55.14
26719;BME280;14326;50.794;6.060;2023-04-06T08:15:44;99633.91;;;9.32;55.82
26719;BME280;14326;50.794;6.060;2023-04-06T08:18:14;99630.53;;;9.42;56.41
26719;BME280;14326;50.794;6.060;2023-04-06T08:20:41;99636.03;;;9.57;54.78
26719;BME280;14326;50.794;6.060;2023-04-06T08:23:10;99650.31;;;9.65;55.79
26719;BME280;14326;50.794;6.060;2023-04-06T08:25:48;99645.09;;;9.74;55.25
26719;BME280;14326;50.794;6.060;2023-04-06T08:28:37;99641.75;;;9.88;55.14
26719;BME280;14326;50.794;6.060;2023-04-06T08:31:12;99641.81;;;9.94;55.54
26719;BME280;14326;50.794;6.060;2023-04-06T08:33:40;99642.78;;;10.03;54.62
26719;BME280;14326;50.794;6.060;2023-04-06T08:36:08;99644.59;;;10.04;54.94
26719;BME280;14326;50.794;6.060;2023-04-06T08:38:35;99648.25;;;10.12;54.92
26719;BME280;14326;50.794;6.060;2023-04-06T08:41:07;99639.47;;;10.18;54.11
26719;BME280;14326;50.794;6.060;2023-04-06T08:43:41;99647.44;;;10.18;54.84
26719;BME280;14326;50.794;6.060;2023-04-06T08:46:09;99649.25;;;10.22;54.58
26719;BME280;14326;50.794;6.060;2023-04-06T08:48:36;99644.00;;;10.28;54.87
26719;BME280;14326;50.794;6.060;2023-04-06T08:51:05;99640.50;;;10.32;55.33
26719;BME280;14326;50.794;6.060;2023-04-06T08:53:32;99646.72;;;10.34;54.21
26719;BME280;14326;50.794;6.060;2023-04-06T08:55:59;99641.44;;;10.39;53.97
26719;BME280;14326;50.794;6.060;2023-04-06T08:58:28;99650.34;;;10.44;53.51
26719;BME280;14326;50.794;6.060;2023-04-06T09:00:58;99649.47;;;10.43;54.38
26719;BME280;14326;50.794;6.060;2023-04-06T09:03:27;99653.06;;;10.50;53.74
26719;BME280;14326;50.794;6.060;2023-04-06T09:05:54;99653.94;;;10.46;53.52
26719;BME280;14326;50.794;6.060;2023-04-06T09:08:21;99653.13;;;10.54;51.77
26719;BME280;14326;50.794;6.060;2023-04-06T09:10:50;99663.63;;;10.39;53.54
26719;BME280;14326;50.794;6.060;2023-04-06T09:13:17;99660.88;;;10.33;53.06
26719;BME280;14326;50.794;6.060;2023-04-06T09:15:44;99648.44;;;10.29;53.85
26719;BME280;14326;50.794;6.060;2023-04-06T09:18:12;99661.66;;;10.23;54.09
26719;BME280;14326;50.794;6.060;2023-04-06T09:20:39;99653.78;;;10.31;54.80
26719;BME280;14326;50.794;6.060;2023-04-06T09:23:05;99664.38;;;10.27;54.96
26719;BME280;14326;50.794;6.060;2023-04-06T09:25:32;99659.16;;;10.35;54.13
26719;BME280;14326;50.794;6.060;2023-04-06T09:28:00;99660.09;;;10.40;54.63
26719;BME280;14326;50.794;6.060;2023-04-06T09:30:27;99658.34;;;10.42;55.07
26719;BME280;14326;50.794;6.060;2023-04-06T09:32:56;99668.97;;;10.41;53.25
26719;BME280;14326;50.794;6.060;2023-04-06T09:35:25;99662.84;;;10.51;53.60
26719;BME280;14326;50.794;6.060;2023-04-06T09:37:54;99659.34;;;10.56;54.60
26719;BME280;14326;50.794;6.060;2023-04-06T09:40:22;99662.06;;;10.62;54.35
26719;BME280;14326;50.794;6.060;2023-04-06T09:42:50;99663.03;;;10.72;53.39
26719;BME280;14326;50.794;6.060;2023-04-06T09:45:19;99663.09;;;10.78;53.63
26719;BME280;14326;50.794;6.060;2023-04-06T09:47:47;99667.66;;;10.91;53.69
26719;BME280;14326;50.794;6.060;2023-04-06T09:50:15;99658.84;;;10.95;53.14
26719;BME280;14326;50.794;6.060;2023-04-06T09:52:47;99660.69;;;11.05;52.82
26719;BME280;14326;50.794;6.060;2023-04-06T09:55:21;99662.56;;;11.20;52.61
26719;BME280;14326;50.794;6.060;2023-04-06T09:57:53;99670.59;;;11.28;52.42
26719;BME280;14326;50.794;6.060;2023-04-06T10:00:22;99661.78;;;11.38;52.22
26719;BME280;14326;50.794;6.060;2023-04-06T10:02:53;99662.75;;;11.47;52.73
26719;BME280;14326;50.794;6.060;2023-04-06T10:05:26;99660.13;;;11.54;52.68
26719;BME280;14326;50.794;6.060;2023-04-06T10:07:57;99653.94;;;11.61;52.14
26719;BME280;14326;50.794;6.060;2023-04-06T10:10:27;99661.06;;;11.63;52.03
26719;BME280;14326;50.794;6.060;2023-04-06T10:12:54;99654.81;;;11.57;52.31
26719;BME280;14326;50.794;6.060;2023-04-06T10:15:22;99653.94;;;11.61;52.98
26719;BME280;14326;50.794;6.060;2023-04-06T10:17:52;99661.06;;;11.60;53.44
26719;BME280;14326;50.794;6.060;2023-04-06T10:20:28;99653.97;;;11.64;52.89
26719;BME280;14326;50.794;6.060;2023-04-06T10:25:54;99659.38;;;11.74;52.77
26719;BME280;14326;50.794;6.060;2023-04-06T10:28:37;99666.41;;;11.68;53.24
26719;BME280;14326;50.794;6.060;2023-04-06T10:31:29;99668.19;;;11.66;53.90
26719;BME280;14326;50.794;6.060;2023-04-06T10:34:06;99662.00;;;11.70;54.13
26719;BME280;14326;50.794;6.060;2023-04-06T10:36:57;99669.09;;;11.71;55.25
26719;BME280;14326;50.794;6.060;2023-04-06T10:39:54;99671.75;;;11.69;56.33
26719;BME280;14326;50.794;6.060;2023-04-06T10:43:06;99676.13;;;11.57;53.70
26719;BME280;14326;50.794;6.060;2023-04-06T10:45:31;99668.06;;;11.46;53.98
26719;BME280;14326;50.794;6.060;2023-04-06T10:48:38;99675.97;;;11.37;54.80
26719;BME280;14326;50.794;6.060;2023-04-06T10:51:09;99672.41;;;11.33;55.47
26719;BME280;14326;50.794;6.060;2023-04-06T10:53:36;99676.88;;;11.37;55.48
26719;BME280;14326;50.794;6.060;2023-04-06T10:59:05;99670.66;;;11.37;55.91
26719;BME280;14326;50.794;6.060;2023-04-06T11:01:32;99662.63;;;11.32;56.03
26719;BME280;14326;50.794;6.060;2023-04-06T11:04:11;99653.72;;;11.24;55.99
26719;BME280;14326;50.794;6.060;2023-04-06T11:06:46;99663.47;;;11.25;57.78
26719;BME280;14326;50.794;6.060;2023-04-06T11:09:23;99652.78;;;11.19;57.30
26719;BME280;14326;50.794;6.060;2023-04-06T11:11:52;99655.47;;;11.22;56.80
26719;BME280;14326;50.794;6.060;2023-04-06T11:14:19;99652.81;;;11.25;57.38
26719;BME280;14326;50.794;6.060;2023-04-06T11:16:48;99655.47;;;11.22;58.47
26719;BME280;14326;50.794;6.060;2023-04-06T11:19:20;99651.94;;;11.23;58.75
26719;BME280;14326;50.794;6.060;2023-04-06T11:21:48;99657.22;;;11.20;59.29
26719;BME280;14326;50.794;6.060;2023-04-06T11:24:16;99653.66;;;11.15;59.72
26719;BME280;14326;50.794;6.060;2023-04-06T11:26:48;99649.31;;;11.25;58.16
26719;BME280;14326;50.794;6.060;2023-04-06T11:29:19;99648.44;;;11.30;59.43
26719;BME280;14326;50.794;6.060;2023-04-06T11:31:47;99648.44;;;11.33;62.88
26719;BME280;14326;50.794;6.060;2023-04-06T11:34:17;99650.22;;;11.33;61.70
26719;BME280;14326;50.794;6.060;2023-04-06T11:36:53;99646.63;;;11.26;64.46
26719;BME280;14326;50.794;6.060;2023-04-06T11:39:23;99638.63;;;11.26;64.28
26719;BME280;14326;50.794;6.060;2023-04-06T11:41:51;99642.94;;;11.07;66.65
26719;BME280;14326;50.794;6.060;2023-04-06T11:44:35;99641.97;;;10.93;68.00
26719;BME280;14326;50.794;6.060;2023-04-06T11:47:14;99652.56;;;10.87;69.36
26719;BME280;14326;50.794;6.060;2023-04-06T11:50:04;99645.31;;;10.70;69.67
26719;BME280;14326;50.794;6.060;2023-04-06T11:52:40;99638.94;;;10.55;73.59
26719;BME280;14326;50.794;6.060;2023-04-06T11:55:11;99643.41;;;10.58;72.76
26719;BME280;14326;50.794;6.060;2023-04-06T11:57:42;99647.81;;;10.56;76.45
26719;BME280;14326;50.794;6.060;2023-04-06T12:00:12;99642.47;;;10.51;77.68
26719;BME280;14326;50.794;6.060;2023-04-06T12:02:45;99639.84;;;10.53;78.59
26719;BME280;14326;50.794;6.060;2023-04-06T12:05:17;99641.59;;;10.55;78.32
26719;BME280;14326;50.794;6.060;2023-04-06T12:07:54;99642.53;;;10.60;79.33
26719;BME280;14326;50.794;6.060;2023-04-06T12:10:22;99636.34;;;10.61;76.80
26719;BME280;14326;50.794;6.060;2023-04-06T12:12:56;99638.19;;;10.65;78.16
26719;BME280;14326;50.794;6.060;2023-04-06T12:15:24;99633.69;;;10.61;75.71
26719;BME280;14326;50.794;6.060;2023-04-06T12:18:07;99639.00;;;10.58;74.33
26719;BME280;14326;50.794;6.060;2023-04-06T12:20:45;99636.28;;;10.52;77.50
26719;BME280;14326;50.794;6.060;2023-04-06T12:23:14;99637.94;;;10.43;78.41
26719;BME280;14326;50.794;6.060;2023-04-06T12:25:47;99633.50;;;10.40;80.69
26719;BME280;14326;50.794;6.060;2023-04-06T12:28:15;99638.63;;;10.25;78.81
26719;BME280;14326;50.794;6.060;2023-04-06T12:30:46;99629.59;;;10.09;79.64
26719;BME280;14326;50.794;6.060;2023-04-06T12:33:28;99633.94;;;10.03;80.09
26719;BME280;14326;50.794;6.060;2023-04-06T12:36:12;99632.13;;;9.99;79.17
26719;BME280;14326;50.794;6.060;2023-04-06T12:39:11;99621.34;;;9.83;81.56
26719;BME280;14326;50.794;6.060;2023-04-06T12:41:54;99626.63;;;9.85;82.53
26719;BME280;14326;50.794;6.060;2023-04-06T12:44:22;99624.00;;;9.86;84.20
26719;BME280;14326;50.794;6.060;2023-04-06T12:46:50;99615.03;;;9.78;84.37
26719;BME280;14326;50.794;6.060;2023-04-06T12:49:17;99617.69;;;9.75;86.63
26719;BME280;14326;50.794;6.060;2023-04-06T12:51:44;99613.06;;;9.59;84.49
26719;BME280;14326;50.794;6.060;2023-04-06T12:57:09;99613.03;;;9.58;89.22
26719;BME280;14326;50.794;6.060;2023-04-06T12:59:52;99616.56;;;9.58;87.28
26719;BME280;14326;50.794;6.060;2023-04-06T13:02:29;99608.72;;;9.67;88.06
26719;BME280;14326;50.794;6.060;2023-04-06T13:04:56;99600.66;;;9.61;87.74
26719;BME280;14326;50.794;6.060;2023-04-06T13:07:26;99599.88;;;9.68;89.02
26719;BME280;14326;50.794;6.060;2023-04-06T13:09:53;99599.09;;;9.75;91.43
26719;BME280;14326;50.794;6.060;2023-04-06T13:12:22;99602.66;;;9.77;89.48
26719;BME280;14326;50.794;6.060;2023-04-06T13:15:10;99608.63;;;9.61;87.86
26719;BME280;14326;50.794;6.060;2023-04-06T13:17:58;99589.00;;;9.49;90.02
26719;BME280;14326;50.794;6.060;2023-04-06T13:20:31;99595.09;;;9.40;90.16
26719;BME280;14326;50.794;6.060;2023-04-06T13:23:09;99601.28;;;9.40;89.29
26719;BME280;14326;50.794;6.060;2023-04-06T13:25:46;99597.72;;;9.38;90.83
26719;BME280;14326;50.794;6.060;2023-04-06T13:28:22;99597.69;;;9.37;90.58
26719;BME280;14326;50.794;6.060;2023-04-06T13:30:52;99594.09;;;9.30;89.56
26719;BME280;14326;50.794;6.060;2023-04-06T13:33:25;99594.03;;;9.27;89.21
26719;BME280;14326;50.794;6.060;2023-04-06T13:35:52;99599.41;;;9.33;90.54
26719;BME280;14326;50.794;6.060;2023-04-06T13:38:19;99583.44;;;9.29;89.80
26719;BME280;14326;50.794;6.060;2023-04-06T13:40:46;99594.09;;;9.30;89.98
26719;BME280;14326;50.794;6.060;2023-04-06T13:43:18;99581.69;;;9.29;90.03
26719;BME280;14326;50.794;6.060;2023-04-06T13:49:01;99579.06;;;9.32;91.71
26719;BME280;14326;50.794;6.060;2023-04-06T13:51:31;99573.72;;;9.31;91.44
26719;BME280;14326;50.794;6.060;2023-04-06T13:54:09;99571.88;;;9.24;91.57
26719;BME280;14326;50.794;6.060;2023-04-06T13:56:46;99568.28;;;9.20;93.25
26719;BME280;14326;50.794;6.060;2023-04-06T13:59:15;99571.78;;;9.18;94.92
26719;BME280;14326;50.794;6.060;2023-04-06T14:01:49;99581.53;;;9.19;95.96
26719;BME280;14326;50.794;6.060;2023-04-06T14:04:20;99584.16;;;9.17;96.06
26719;BME280;14326;50.794;6.060;2023-04-06T14:06:55;99575.13;;;9.04;97.45
26719;BME280;14326;50.794;6.060;2023-04-06T14:09:23;99575.94;;;8.99;97.78
26719;BME280;14326;50.794;6.060;2023-04-06T14:11:58;99575.97;;;9.00;98.83
26719;BME280;14326;50.794;6.060;2023-04-06T14:14:54;99568.91;;;9.02;99.74
26719;BME280;14326;50.794;6.060;2023-04-06T14:17:21;99569.75;;;8.98;99.02
26719;BME280;14326;50.794;6.060;2023-04-06T14:19:48;99563.50;;;8.95;100.00
26719;BME280;14326;50.794;6.060;2023-04-06T14:22:23;99561.75;;;8.97;100.00
26719;BME280;14326;50.794;6.060;2023-04-06T14:25:14;99560.84;;;8.96;100.00
26719;BME280;14326;50.794;6.060;2023-04-06T14:27:54;99559.84;;;8.87;100.00